Alpena, MI

4:43 AM EDT on May 24, 2015 (GMT -0400)
Alpena County Regional | | Change Station
CLOSE
Current Station
Airport
Location: Alpena,
Elevation: 689 ft
Nearby Weather Stations

Elev 689 ft 45.07 °N, 83.56 °W | Updated 49 minutes ago

Clear
Clear
54 °F
Feels Like 54 °F
N
6
Wind Variable Wind from SW

Today
High -- | Low -- °F
--% Chance of Precip.
Yesterday
High -- | Low -- °F
Precip. -- in
5:55 AM 9:06 PM
Waxing Crescent, 37% visible
Pressure 30.18 in
Visibility 10.0 miles
Clouds Clear
Dew Point 36 °F
Humidity 51%
Rainfall 0.00 in
Snow Depth Not available.
UV 0 out of 12
Pollen 9.50 out of 12
Air Quality Not available.
Flu Activity Sporadic
METAR KAPN 240754Z AUTO 23005KT 10SM CLR 12/02 A3018 RMK AO2 SLP220 T01220022

More Conditions Fewer Conditions

Pressure 30.18 in
Visibility 10.0 miles
Clouds Clear
Dew Point 36 °F
Humidity 51%
Rainfall 0.00 in
Snow Depth Not available.
UV 0 out of 12
Pollen 9.50 out of 12
Air Quality Not available.
Flu Activity Sporadic
METAR KAPN 240754Z AUTO 23005KT 10SM CLR 12/02 A3018 RMK AO2 SLP220 T01220022

More Conditions Fewer Conditions

Nowcast | as of 4:00 am EDT on May 24, 2015

At 5 am...mostly clear. Temperature 80 below. Light winds. Mostly clear. Southwest winds 5 mph. Partly cloudy. Southwest winds 6 mph. At 11 am...partly cloudy. Temperature 67. Southwest winds 5 mph.

×

10-Day Weather Forecast

Almanac

Astronomy

May. 24, 2015 Rise Set
Actual Time
Civil Twilight
Nautical Twilight
Astronomical Twilight
Moon
Length of Visible Light
Length of Day
Tomorrow will be .
, % of the Moon is Illuminated

Today's Extremes

State Highs State Lows

Community

WunderPhotos

Upload Photos

1,823,698 photos uploaded!

WunderBlogs® & News

Nearby

Air Quality

  Air Quality AQ Index Pollutant
Not available.

Snow Depth

Station Depth Elevation

Earthquake Activity

City Distance Mag. Time & Date
Minimum magnitude displayed is 2.5.

Coastal Water Temperatures

Place Temperature

Stations

Nearby Weather Stations

Station Location Temp. Windchill Dew Point Humidity Wind Precip. Elev Updated Type